createdAt,value
2017-05-08T00:00:59.113Z,30.67
2017-05-08T00:03:26.554Z,31.10
2017-05-08T00:05:53.994Z,28.08
2017-05-08T00:08:21.445Z,29.10
2017-05-08T00:10:48.886Z,28.35
2017-05-08T00:13:16.326Z,30.93
2017-05-08T00:15:43.791Z,27.75
2017-05-08T00:18:11.231Z,30.27
2017-05-08T00:20:38.670Z,27.97
2017-05-08T00:23:06.127Z,28.27
2017-05-08T00:25:33.561Z,31.15
2017-05-08T00:28:01.000Z,30.58
2017-05-08T00:30:28.454Z,28.37
2017-05-08T00:32:55.890Z,26.42
2017-05-08T00:35:23.329Z,30.68
2017-05-08T00:37:50.794Z,27.48
2017-05-08T00:40:18.230Z,31.50
2017-05-08T00:42:45.671Z,28.73
2017-05-08T00:45:13.128Z,28.23
2017-05-08T00:47:40.578Z,31.22
2017-05-08T00:50:08.022Z,30.37
2017-05-08T00:52:35.469Z,30.87
2017-05-08T00:55:02.911Z,28.90
2017-05-08T00:57:30.345Z,30.95
2017-05-08T00:59:57.797Z,31.88
2017-05-08T01:02:25.237Z,30.70
2017-05-08T01:04:52.673Z,31.18
2017-05-08T01:07:20.129Z,30.92
2017-05-08T01:09:47.570Z,32.55
2017-05-08T01:12:15.005Z,35.30
2017-05-08T01:14:42.448Z,32.82
2017-05-08T01:17:09.883Z,32.03
2017-05-08T01:19:37.314Z,33.73
2017-05-08T01:22:04.770Z,34.62
2017-05-08T01:24:32.202Z,38.47
2017-05-08T01:26:59.673Z,35.55
2017-05-08T01:29:27.147Z,32.67
2017-05-08T01:31:54.583Z,36.40
2017-05-08T01:34:22.035Z,40.98
2017-05-08T01:36:49.482Z,41.18
2017-05-08T01:39:16.917Z,40.07
2017-05-08T01:41:44.346Z,39.60
2017-05-08T01:44:12.486Z,45.00
2017-05-08T01:46:39.922Z,48.70
2017-05-08T01:49:07.357Z,44.72
2017-05-08T01:51:34.819Z,48.52
2017-05-08T01:54:02.263Z,47.97
2017-05-08T01:56:29.697Z,46.60
2017-05-08T01:58:57.192Z,50.10
2017-05-08T02:01:24.641Z,56.47
2017-05-08T02:03:52.091Z,50.58
2017-05-08T02:06:19.549Z,51.18
2017-05-08T02:08:46.982Z,48.02
2017-05-08T02:11:14.478Z,48.30
2017-05-08T02:13:41.939Z,50.20
2017-05-08T02:16:09.400Z,46.72
2017-05-08T02:18:36.819Z,46.67
2017-05-08T02:21:04.278Z,45.78
2017-05-08T02:23:31.722Z,46.87
2017-05-08T02:25:59.174Z,44.62
2017-05-08T02:28:26.630Z,45.40
2017-05-08T02:30:54.066Z,46.10
2017-05-08T02:33:21.495Z,43.72
2017-05-08T02:35:48.962Z,43.02
2017-05-08T02:38:16.398Z,43.97
2017-05-08T02:40:43.826Z,43.73
2017-05-08T02:43:11.412Z,40.72
2017-05-08T02:45:38.870Z,43.90
2017-05-08T02:48:06.302Z,42.20
2017-05-08T02:50:33.753Z,41.18
2017-05-08T02:53:01.186Z,46.82
2017-05-08T02:55:29.611Z,39.92
2017-05-08T02:57:57.074Z,41.70
2017-05-08T03:00:24.870Z,42.97
2017-05-08T03:02:52.578Z,43.98
2017-05-08T03:05:20.040Z,43.97
2017-05-08T03:07:47.469Z,44.30
2017-05-08T03:10:14.901Z,45.42
2017-05-08T03:12:42.374Z,46.58
2017-05-08T03:15:09.814Z,46.13
2017-05-08T03:17:37.249Z,44.30
2017-05-08T03:20:04.703Z,45.77
2017-05-08T03:22:32.138Z,43.65
2017-05-08T03:24:59.571Z,45.20
2017-05-08T03:27:27.027Z,41.85
2017-05-08T03:29:54.459Z,43.43
2017-05-08T03:32:21.889Z,43.68
2017-05-08T03:34:49.342Z,42.12
2017-05-08T03:37:16.781Z,40.77
2017-05-08T03:39:44.406Z,40.03
2017-05-08T03:42:11.877Z,40.70
2017-05-08T03:44:39.305Z,38.72
2017-05-08T03:47:06.735Z,41.95
2017-05-08T03:49:34.190Z,38.12
2017-05-08T03:52:01.622Z,41.10
2017-05-08T03:54:29.090Z,38.53
2017-05-08T03:56:56.547Z,42.92
2017-05-08T03:59:23.983Z,44.35
2017-05-08T04:01:51.423Z,42.63
2017-05-08T04:04:18.902Z,47.02
2017-05-08T04:06:46.338Z,50.65
2017-05-08T04:09:13.770Z,54.57
2017-05-08T04:11:41.230Z,48.22
2017-05-08T04:14:08.667Z,48.32
2017-05-08T04:16:36.103Z,51.53
2017-05-08T04:19:03.552Z,45.12
2017-05-08T04:21:30.991Z,42.93
2017-05-08T04:23:58.418Z,46.30
2017-05-08T04:26:25.870Z,46.90
2017-05-08T04:28:53.311Z,45.30
2017-05-08T04:31:20.751Z,47.58
2017-05-08T04:33:48.218Z,40.70
2017-05-08T04:36:15.646Z,43.67
2017-05-08T04:38:43.082Z,41.70
2017-05-08T04:41:10.530Z,38.67
2017-05-08T04:43:37.961Z,37.48
2017-05-08T04:46:05.390Z,46.12
2017-05-08T04:48:32.846Z,35.97
2017-05-08T04:51:00.278Z,34.88
2017-05-08T04:53:27.722Z,37.42
2017-05-08T04:55:55.174Z,39.38
2017-05-08T04:58:22.606Z,36.57
2017-05-08T05:00:50.037Z,34.00
2017-05-08T05:03:17.494Z,36.60
2017-05-08T05:05:44.946Z,31.80
2017-05-08T05:08:12.390Z,35.07
2017-05-08T05:10:39.919Z,34.47
2017-05-08T05:13:07.383Z,36.22
2017-05-08T05:15:34.826Z,32.45
2017-05-08T05:18:02.293Z,32.45
2017-05-08T05:20:29.757Z,39.82
2017-05-08T05:22:57.207Z,34.02
2017-05-08T05:25:24.666Z,30.82
2017-05-08T05:27:52.106Z,34.43
2017-05-08T05:30:19.541Z,31.02
2017-05-08T05:32:46.990Z,33.77
2017-05-08T05:35:14.578Z,33.78
2017-05-08T05:37:42.022Z,31.07
2017-05-08T05:40:09.487Z,33.73
2017-05-08T05:42:36.993Z,30.45
2017-05-08T05:45:04.430Z,28.95
2017-05-08T05:47:31.891Z,32.75
2017-05-08T05:49:59.327Z,33.03
2017-05-08T05:52:26.758Z,33.55
2017-05-08T05:54:54.210Z,29.95
2017-05-08T05:57:21.642Z,33.98
2017-05-08T05:59:49.074Z,33.08
2017-05-08T06:02:16.534Z,33.30
2017-05-08T06:04:43.974Z,33.60
2017-05-08T06:07:11.430Z,32.75
2017-05-08T06:09:38.886Z,30.63
2017-05-08T06:12:06.330Z,33.65
2017-05-08T06:14:33.767Z,33.23
2017-05-08T06:17:01.218Z,39.80
2017-05-08T06:19:28.650Z,31.67
2017-05-08T06:21:56.090Z,31.07
2017-05-08T06:24:23.552Z,33.57
2017-05-08T06:26:50.994Z,30.40
2017-05-08T06:29:18.426Z,35.82
2017-05-08T06:31:45.886Z,30.28
2017-05-08T06:34:13.321Z,31.02
2017-05-08T06:36:40.749Z,31.32
2017-05-08T06:39:08.226Z,30.45
2017-05-08T06:41:35.657Z,29.98
2017-05-08T06:44:03.086Z,28.67
2017-05-08T06:46:30.538Z,27.33
2017-05-08T06:48:57.984Z,28.42
2017-05-08T06:51:25.425Z,27.93
2017-05-08T06:53:52.875Z,26.97
2017-05-08T06:56:20.306Z,29.17
2017-05-08T06:58:47.748Z,28.88
2017-05-08T07:01:15.201Z,31.25
2017-05-08T07:03:42.630Z,29.67
2017-05-08T07:06:10.068Z,26.78
2017-05-08T07:08:37.517Z,27.27
2017-05-08T07:11:04.951Z,22.82
2017-05-08T07:13:32.383Z,26.00
2017-05-08T07:15:59.834Z,27.60
2017-05-08T07:18:27.267Z,24.03
2017-05-08T07:20:54.702Z,25.37
2017-05-08T07:23:22.162Z,26.20
2017-05-08T07:25:49.600Z,31.05
2017-05-08T07:28:17.029Z,24.33
2017-05-08T07:30:44.474Z,25.28
2017-05-08T07:33:11.907Z,24.98
2017-05-08T07:35:39.354Z,25.60
2017-05-08T07:38:06.787Z,23.50
2017-05-08T07:40:34.218Z,22.28
2017-05-08T07:43:01.663Z,30.80
2017-05-08T07:45:29.110Z,23.47
2017-05-08T07:47:56.539Z,25.63
2017-05-08T07:50:23.993Z,22.68
2017-05-08T07:52:51.431Z,22.67
2017-05-08T07:55:18.918Z,21.97
2017-05-08T07:57:46.369Z,22.58
2017-05-08T08:00:13.800Z,23.92
2017-05-08T08:02:41.243Z,24.38
2017-05-08T08:05:08.705Z,22.90
2017-05-08T08:07:36.143Z,23.33
2017-05-08T08:10:03.574Z,22.03
2017-05-08T08:12:31.026Z,26.22
2017-05-08T08:14:58.459Z,25.87
2017-05-08T08:17:25.885Z,28.87
2017-05-08T08:19:53.352Z,21.23
2017-05-08T08:22:20.790Z,21.58
2017-05-08T08:24:48.223Z,22.75
2017-05-08T08:27:15.683Z,24.13
2017-05-08T08:29:43.110Z,23.62
2017-05-08T08:32:10.542Z,25.15
2017-05-08T08:34:37.986Z,21.43
2017-05-08T08:37:05.455Z,26.52
2017-05-08T08:39:32.889Z,26.32
2017-05-08T08:42:00.341Z,25.92
2017-05-08T08:44:27.770Z,27.60
2017-05-08T08:46:55.202Z,24.02
2017-05-08T08:49:22.661Z,22.07
2017-05-08T08:51:50.098Z,23.40
2017-05-08T08:54:17.534Z,24.88
2017-05-08T08:56:45.025Z,22.67
2017-05-08T08:59:12.454Z,23.63
2017-05-08T09:01:39.893Z,22.92
2017-05-08T09:04:07.354Z,23.05
2017-05-08T09:06:36.785Z,23.52
2017-05-08T09:09:04.839Z,23.97
2017-05-08T09:11:32.302Z,24.58
2017-05-08T09:13:59.742Z,23.47
2017-05-08T09:16:27.182Z,22.07
2017-05-08T09:18:54.651Z,22.45
2017-05-08T09:21:22.093Z,23.45
2017-05-08T09:23:49.530Z,23.45
2017-05-08T09:26:16.973Z,23.02
2017-05-08T09:28:44.403Z,22.58
2017-05-08T09:31:11.842Z,21.07
2017-05-08T09:33:39.297Z,19.92
2017-05-08T09:36:06.729Z,18.38
2017-05-08T09:38:34.167Z,21.20
2017-05-08T09:41:01.645Z,24.25
2017-05-08T09:43:29.078Z,24.25
2017-05-08T09:45:56.510Z,21.60
2017-05-08T09:48:23.967Z,23.05
2017-05-08T09:50:51.401Z,22.05
2017-05-08T09:53:18.834Z,19.55
2017-05-08T09:55:46.290Z,24.50
2017-05-08T09:58:13.717Z,21.52
2017-05-08T10:00:41.142Z,19.93
2017-05-08T10:03:08.597Z,20.88
2017-05-08T10:05:36.032Z,20.47
2017-05-08T10:08:04.386Z,20.27
2017-05-08T10:10:31.837Z,20.62
2017-05-08T10:12:59.293Z,19.53
2017-05-08T10:15:26.730Z,19.90
2017-05-08T10:17:54.188Z,19.78
2017-05-08T10:20:21.626Z,21.35
2017-05-08T10:22:49.058Z,19.78
2017-05-08T10:25:16.526Z,20.90
2017-05-08T10:27:43.961Z,20.82
2017-05-08T10:30:11.392Z,22.40
2017-05-08T10:32:38.851Z,20.33
2017-05-08T10:35:07.242Z,19.20
2017-05-08T10:37:34.678Z,19.67
2017-05-08T10:40:02.139Z,20.52
2017-05-08T10:42:29.581Z,20.22
2017-05-08T10:44:57.013Z,20.58
2017-05-08T10:47:24.473Z,19.53
2017-05-08T10:49:51.898Z,16.23
2017-05-08T10:52:19.341Z,15.15
2017-05-08T10:54:46.794Z,13.52
2017-05-08T10:57:14.226Z,16.68
2017-05-08T10:59:41.659Z,15.95
2017-05-08T11:02:09.114Z,16.93
2017-05-08T11:04:36.550Z,16.63
2017-05-08T11:07:03.981Z,17.45
2017-05-08T11:09:31.438Z,17.00
2017-05-08T11:11:58.878Z,16.50
2017-05-08T11:14:26.314Z,16.58
2017-05-08T11:16:53.770Z,15.88
2017-05-08T11:19:21.215Z,14.65
2017-05-08T11:21:48.643Z,16.15
2017-05-08T11:24:16.098Z,16.37
2017-05-08T11:26:43.530Z,15.77
2017-05-08T11:29:10.961Z,15.12
2017-05-08T11:31:38.413Z,17.03
2017-05-08T11:34:05.841Z,13.03
2017-05-08T11:36:33.273Z,13.57
2017-05-08T11:39:00.733Z,12.90
2017-05-08T11:41:28.165Z,12.17
2017-05-08T11:43:55.581Z,10.77
2017-05-08T11:46:23.035Z,10.47
2017-05-08T11:48:50.466Z,10.33
2017-05-08T11:51:17.901Z,11.07
2017-05-08T11:53:45.353Z,11.12
2017-05-08T11:56:12.782Z,12.03
2017-05-08T11:58:40.219Z,14.23
2017-05-08T12:01:07.671Z,12.35
2017-05-08T12:03:35.102Z,10.08
2017-05-08T12:06:02.534Z,10.95
2017-05-08T12:08:29.990Z,11.83
2017-05-08T12:10:57.425Z,11.17
2017-05-08T12:13:24.854Z,10.73
2017-05-08T12:15:52.298Z,11.00
2017-05-08T12:18:19.718Z,9.32
2017-05-08T12:20:47.189Z,9.52
2017-05-08T12:23:14.633Z,12.87
2017-05-08T12:25:42.057Z,10.13
2017-05-08T12:28:09.487Z,10.33
2017-05-08T12:30:36.945Z,12.85
2017-05-08T12:33:04.377Z,10.90
2017-05-08T12:35:31.805Z,11.25
2017-05-08T12:37:59.250Z,10.75
2017-05-08T12:40:26.670Z,10.98
2017-05-08T12:42:54.102Z,9.05
2017-05-08T12:45:21.558Z,10.60
2017-05-08T12:47:48.985Z,9.68
2017-05-08T12:50:16.421Z,10.20
2017-05-08T12:52:44.781Z,15.15
2017-05-08T12:55:12.217Z,10.50
2017-05-08T12:57:39.677Z,12.03
2017-05-08T13:00:07.137Z,12.25
2017-05-08T13:02:34.593Z,13.07
2017-05-08T13:05:02.031Z,13.15
2017-05-08T13:07:29.542Z,12.23
2017-05-08T13:09:56.999Z,12.07
2017-05-08T13:12:32.774Z,11.45
2017-05-08T13:15:00.264Z,13.13
2017-05-08T13:17:28.653Z,15.03
2017-05-08T13:19:56.126Z,15.38
2017-05-08T13:22:23.555Z,13.48
2017-05-08T13:24:50.991Z,13.05
2017-05-08T13:27:19.400Z,12.47
2017-05-08T13:29:46.841Z,14.33
2017-05-08T13:32:16.270Z,11.68
2017-05-08T13:34:43.730Z,15.05
2017-05-08T13:37:24.125Z,13.58
2017-05-08T13:39:55.349Z,14.18
2017-05-08T13:42:22.787Z,13.45
2017-05-08T13:44:50.216Z,13.32
2017-05-08T13:47:17.649Z,13.45
2017-05-08T13:49:45.074Z,13.88
2017-05-08T13:52:12.518Z,15.65
2017-05-08T13:54:39.965Z,13.55
2017-05-08T13:57:07.403Z,14.22
2017-05-08T13:59:48.916Z,12.22
2017-05-08T14:02:16.366Z,12.85
2017-05-08T14:04:43.797Z,16.35
2017-05-08T14:07:11.248Z,15.18
2017-05-08T14:09:38.673Z,16.53
2017-05-08T14:12:06.106Z,12.42
2017-05-08T14:14:33.542Z,15.22
2017-05-08T14:17:00.978Z,19.63
2017-05-08T14:19:28.422Z,12.80
2017-05-08T14:22:03.573Z,14.32
2017-05-08T14:24:31.051Z,17.22
2017-05-08T14:27:02.929Z,13.02
2017-05-08T14:29:30.383Z,18.12
2017-05-08T14:31:57.824Z,15.83
2017-05-08T14:34:25.253Z,15.17
2017-05-08T14:36:52.682Z,15.73
2017-05-08T14:39:20.545Z,18.13
2017-05-08T14:41:47.979Z,16.03
2017-05-08T14:44:15.405Z,15.62
2017-05-08T14:46:42.849Z,18.83
2017-05-08T14:49:10.287Z,15.20
2017-05-08T14:51:37.747Z,16.35
2017-05-08T14:54:05.181Z,15.60
2017-05-08T14:56:32.727Z,19.35
2017-05-08T14:59:00.250Z,15.37
2017-05-08T15:01:27.691Z,18.12
2017-05-08T15:03:55.117Z,15.98
2017-05-08T15:06:22.558Z,16.05
2017-05-08T15:08:49.988Z,17.12
2017-05-08T15:11:17.486Z,18.17
2017-05-08T15:13:44.941Z,18.67
2017-05-08T15:16:13.342Z,16.53
2017-05-08T15:18:40.794Z,16.37
2017-05-08T15:21:08.234Z,17.33
2017-05-08T15:23:35.715Z,19.53
2017-05-08T15:26:03.190Z,18.18
2017-05-08T15:28:30.671Z,16.03
2017-05-08T15:30:58.117Z,19.03
2017-05-08T15:33:25.586Z,17.27
2017-05-08T15:35:56.900Z,17.30
2017-05-08T15:38:24.358Z,14.22
2017-05-08T15:40:51.826Z,24.28
2017-05-08T15:43:19.258Z,13.93
2017-05-08T15:45:47.654Z,20.85
2017-05-08T15:48:15.134Z,13.80
2017-05-08T15:50:42.594Z,13.43
2017-05-08T15:53:10.038Z,14.05
2017-05-08T15:58:34.456Z,17.15
2017-05-08T16:01:01.931Z,14.87
2017-05-08T16:03:29.394Z,14.48
2017-05-08T16:05:56.867Z,12.77
2017-05-08T16:08:30.338Z,13.35
2017-05-08T16:10:57.790Z,12.62
2017-05-08T16:13:25.254Z,15.12
2017-05-08T16:15:56.271Z,14.20
2017-05-08T16:18:23.786Z,11.33
2017-05-08T16:20:51.233Z,10.92
2017-05-08T16:23:18.726Z,15.33
2017-05-08T16:25:47.610Z,8.18
2017-05-08T16:28:22.930Z,11.17
2017-05-08T16:30:50.370Z,11.60
2017-05-08T16:33:17.841Z,10.42
2017-05-08T16:35:46.268Z,10.92
2017-05-08T16:38:17.198Z,9.57
2017-05-08T16:40:44.703Z,9.12
2017-05-08T16:43:12.213Z,10.93
2017-05-08T16:45:47.560Z,11.13
2017-05-08T16:48:15.046Z,11.87
2017-05-08T16:50:42.513Z,10.05
2017-05-08T16:53:09.966Z,9.48
2017-05-08T16:55:37.492Z,8.35
2017-05-08T16:58:04.999Z,8.93
2017-05-08T17:00:32.473Z,14.55
2017-05-08T17:02:59.915Z,11.37
2017-05-08T17:05:27.360Z,9.27
2017-05-08T17:08:05.776Z,9.68
2017-05-08T17:10:33.303Z,13.57
2017-05-08T17:13:00.738Z,9.55
2017-05-08T17:15:29.318Z,11.77
2017-05-08T17:17:56.767Z,11.15
2017-05-08T17:20:24.229Z,8.77
2017-05-08T17:22:51.734Z,9.27
2017-05-08T17:25:19.193Z,10.33
2017-05-08T17:27:46.675Z,14.70
2017-05-08T17:30:14.130Z,11.98
2017-05-08T17:32:41.566Z,7.92
2017-05-08T17:35:09.042Z,12.22
2017-05-08T17:37:36.526Z,12.82
2017-05-08T17:40:04.040Z,14.03
2017-05-08T17:42:31.510Z,14.37
2017-05-08T17:44:59.022Z,11.20
2017-05-08T17:47:26.503Z,11.87
2017-05-08T17:49:53.939Z,9.52
2017-05-08T17:52:21.386Z,8.40
2017-05-08T17:54:48.813Z,10.28
2017-05-08T17:57:16.242Z,12.70
2017-05-08T17:59:43.678Z,9.05
2017-05-08T18:02:11.103Z,12.42
2017-05-08T18:04:38.521Z,7.63
2017-05-08T18:07:05.974Z,10.00
2017-05-08T18:09:33.410Z,9.87
2017-05-08T18:12:00.837Z,8.22
2017-05-08T18:14:28.283Z,8.77
2017-05-08T18:16:55.797Z,9.92
2017-05-08T18:19:23.249Z,10.28
2017-05-08T18:21:50.702Z,9.40
2017-05-08T18:24:18.138Z,9.60
2017-05-08T18:26:45.593Z,13.87
2017-05-08T18:29:13.069Z,11.13
2017-05-08T18:31:40.518Z,11.98
2017-05-08T18:34:07.970Z,10.37
2017-05-08T18:36:35.432Z,11.57
2017-05-08T18:39:02.897Z,12.13
2017-05-08T18:41:30.388Z,9.65
2017-05-08T18:43:57.893Z,8.78
2017-05-08T18:46:25.340Z,11.67
2017-05-08T18:48:52.785Z,8.63
2017-05-08T18:51:20.258Z,12.20
2017-05-08T18:53:47.695Z,8.03
2017-05-08T18:56:15.138Z,9.13
2017-05-08T18:58:42.629Z,12.02
2017-05-08T19:01:10.059Z,9.92
2017-05-08T19:03:37.489Z,7.82
2017-05-08T19:06:04.953Z,11.80
2017-05-08T19:08:32.391Z,8.62
2017-05-08T19:10:59.839Z,10.75
2017-05-08T19:13:27.295Z,7.83
2017-05-08T19:15:54.734Z,11.18
2017-05-08T19:18:22.298Z,12.78
2017-05-08T19:20:49.756Z,9.80
2017-05-08T19:23:17.194Z,12.72
2017-05-08T19:25:44.635Z,10.22
2017-05-08T19:28:12.102Z,12.95
2017-05-08T19:30:41.505Z,12.13
2017-05-08T19:33:09.326Z,8.13
2017-05-08T19:35:36.785Z,11.33
2017-05-08T19:38:04.226Z,9.43
2017-05-08T19:40:31.662Z,7.32
2017-05-08T19:42:59.122Z,9.72
2017-05-08T19:45:26.552Z,9.87
2017-05-08T19:47:54.105Z,7.85
2017-05-08T19:50:21.562Z,8.25
2017-05-08T19:52:48.994Z,9.13
2017-05-08T19:55:16.461Z,8.43
2017-05-08T19:57:43.939Z,7.05
2017-05-08T20:00:11.387Z,7.37
2017-05-08T20:02:38.820Z,6.92
2017-05-08T20:05:06.314Z,12.82
2017-05-08T20:07:33.777Z,9.55
2017-05-08T20:10:03.181Z,7.65
2017-05-08T20:12:30.634Z,10.78
2017-05-08T20:14:58.097Z,8.40
2017-05-08T20:17:25.545Z,9.38
2017-05-08T20:19:52.996Z,9.52
2017-05-08T20:22:20.422Z,9.12
2017-05-08T20:24:47.862Z,12.45
2017-05-08T20:27:15.325Z,10.60
2017-05-08T20:29:42.758Z,9.52
2017-05-08T20:32:10.194Z,11.27
2017-05-08T20:34:37.697Z,8.53
2017-05-08T20:37:05.174Z,9.72
2017-05-08T20:39:32.653Z,13.45
2017-05-08T20:42:00.169Z,10.95
2017-05-08T20:44:27.639Z,8.70
2017-05-08T20:46:58.137Z,10.13
2017-05-08T20:49:25.590Z,7.72
2017-05-08T20:51:53.046Z,9.70
2017-05-08T20:54:20.501Z,7.35
2017-05-08T20:56:47.950Z,11.83
2017-05-08T20:59:15.418Z,10.62
2017-05-08T21:01:42.862Z,7.63
2017-05-08T21:04:10.322Z,6.87
2017-05-08T21:06:37.766Z,8.58
2017-05-08T21:09:05.235Z,8.07
2017-05-08T21:11:32.734Z,8.43
2017-05-08T21:14:00.170Z,9.48
2017-05-08T21:16:27.647Z,8.95
2017-05-08T21:18:55.125Z,9.52
2017-05-08T21:21:22.593Z,11.25
2017-05-08T21:23:50.054Z,8.28
2017-05-08T21:26:18.530Z,11.40
2017-05-08T21:28:45.974Z,8.10
2017-05-08T21:31:13.429Z,9.18
2017-05-08T21:33:40.882Z,8.70
2017-05-08T21:36:08.383Z,8.87
2017-05-08T21:38:35.843Z,7.70
2017-05-08T21:41:03.314Z,9.85
2017-05-08T21:43:30.792Z,8.52
2017-05-08T21:45:58.243Z,8.43
2017-05-08T21:48:25.715Z,8.65
2017-05-08T21:50:53.222Z,9.95
2017-05-08T21:53:20.687Z,7.55
2017-05-08T21:55:48.231Z,9.28
2017-05-08T21:58:15.726Z,9.40
2017-05-08T22:00:43.190Z,8.08
2017-05-08T22:03:10.665Z,7.63
2017-05-08T22:05:38.106Z,9.82
2017-05-08T22:08:05.585Z,7.52
2017-05-08T22:10:33.020Z,7.38
2017-05-08T22:13:00.474Z,7.52
2017-05-08T22:15:27.930Z,8.68
2017-05-08T22:17:55.367Z,7.18
2017-05-08T22:20:22.846Z,7.33
2017-05-08T22:22:50.307Z,7.53
2017-05-08T22:25:17.762Z,7.15
2017-05-08T22:27:45.218Z,8.30
2017-05-08T22:30:12.658Z,6.58
2017-05-08T22:32:40.130Z,7.98
2017-05-08T22:35:07.621Z,6.75
2017-05-08T22:37:35.089Z,5.57
2017-05-08T22:40:02.555Z,5.50
2017-05-08T22:42:29.986Z,7.22
2017-05-08T22:44:57.503Z,6.52
2017-05-08T22:47:24.960Z,6.02
2017-05-08T22:49:52.417Z,5.38
2017-05-08T22:52:19.871Z,7.40
2017-05-08T22:54:47.313Z,9.72
2017-05-08T22:57:15.754Z,5.07
2017-05-08T22:59:43.189Z,6.73
2017-05-08T23:02:10.625Z,5.62
2017-05-08T23:04:38.075Z,5.58
2017-05-08T23:07:05.507Z,6.35
2017-05-08T23:09:33.053Z,7.87
2017-05-08T23:12:00.523Z,5.65
2017-05-08T23:14:27.958Z,5.87
2017-05-08T23:16:55.442Z,5.47
2017-05-08T23:19:22.879Z,6.82
2017-05-08T23:21:50.350Z,5.10
2017-05-08T23:24:17.777Z,6.05
2017-05-08T23:26:45.205Z,5.58
2017-05-08T23:29:12.683Z,7.63
2017-05-08T23:31:40.124Z,8.12
2017-05-08T23:34:07.587Z,5.87
2017-05-08T23:36:35.026Z,6.90
2017-05-08T23:39:02.466Z,6.48
2017-05-08T23:41:29.935Z,5.52
2017-05-08T23:43:57.387Z,6.00
2017-05-08T23:46:24.861Z,6.90
2017-05-08T23:48:52.313Z,5.93
2017-05-08T23:51:19.758Z,5.20
2017-05-08T23:53:47.234Z,6.17
2017-05-08T23:56:14.667Z,5.27
2017-05-08T23:58:42.142Z,6.68
